Time;durP1;ratioP1;P1;durP2;ratioP2;P2;SDS_P1;SDS_P2;PMS_P1;PMS_P2;Temp;Humidity;BMP_temperature;BMP_pressure;BME280_temperature;BME280_humidity;BME280_pressure;Samples;Min_cycle;Max_cycle;Signal;HPM_P1;HPM_P2
2020/12/25 00:00:57;;;;;;;1.13;1.03;;;3.90;99.90;;;;;;5069020;28;20196;-59
2020/12/25 00:03:22;;;;;;;1.00;0.90;;;4.10;99.90;;;;;;5069044;28;20619;-58
2020/12/25 00:05:49;;;;;;;0.90;0.87;;;4.10;99.90;;;;;;5068778;28;20197;-58
2020/12/25 00:08:20;;;;;;;1.00;0.90;;;4.30;99.90;;;;;;5068583;28;20263;-59
2020/12/25 00:10:46;;;;;;;0.93;0.93;;;4.40;99.90;;;;;;5068869;28;20181;-59
2020/12/25 00:13:11;;;;;;;1.20;1.10;;;4.00;99.90;;;;;;5068684;28;20207;-59
2020/12/25 00:15:37;;;;;;;2.00;1.10;;;4.30;99.90;;;;;;5070061;28;20180;-59
2020/12/25 00:18:03;;;;;;;1.20;1.10;;;4.20;99.90;;;;;;5069737;28;20197;-59
2020/12/25 00:20:28;;;;;;;1.27;1.17;;;4.10;99.90;;;;;;5068642;28;20199;-60
2020/12/25 00:22:54;;;;;;;0.90;0.90;;;4.20;99.90;;;;;;5068683;28;20862;-59
2020/12/25 00:25:19;;;;;;;0.90;0.90;;;4.40;99.90;;;;;;5068482;28;20201;-59
2020/12/25 00:27:46;;;;;;;0.80;0.80;;;4.40;99.90;;;;;;5069718;28;20654;-59
2020/12/25 00:30:11;;;;;;;0.77;0.77;;;4.20;99.90;;;;;;5068287;28;20213;-59
2020/12/25 00:32:37;;;;;;;0.87;0.80;;;4.20;99.90;;;;;;5068558;28;20281;-59
2020/12/25 00:35:02;;;;;;;0.70;0.70;;;4.20;99.90;;;;;;5067337;28;20189;-58
2020/12/25 00:37:28;;;;;;;0.90;0.90;;;4.00;99.90;;;;;;5068299;28;20202;-59
2020/12/25 00:39:54;;;;;;;0.70;0.70;;;4.20;99.90;;;;;;5069562;28;20184;-59
2020/12/25 00:42:19;;;;;;;0.70;0.60;;;4.10;99.90;;;;;;5068408;28;20270;-59
2020/12/25 00:44:45;;;;;;;0.70;0.70;;;3.90;99.90;;;;;;5068326;28;20185;-60
2020/12/25 00:47:10;;;;;;;0.80;0.73;;;4.00;99.90;;;;;;5068130;28;20236;-58
2020/12/25 00:49:36;;;;;;;0.80;0.80;;;4.30;99.90;;;;;;5068064;28;20205;-59
2020/12/25 00:52:01;;;;;;;0.80;0.80;;;4.20;99.90;;;;;;5068252;28;20185;-59
2020/12/25 00:54:27;;;;;;;0.90;0.90;;;4.70;99.90;;;;;;5068114;28;20549;-59
2020/12/25 00:56:52;;;;;;;1.00;1.00;;;4.10;99.90;;;;;;5069453;28;20201;-58
2020/12/25 00:59:18;;;;;;;1.00;1.00;;;4.00;99.90;;;;;;5069574;28;20188;-59
2020/12/25 01:01:44;;;;;;;0.90;0.80;;;4.20;99.90;;;;;;5068306;28;20204;-59
2020/12/25 01:04:09;;;;;;;2.33;1.10;;;4.20;99.90;;;;;;5067951;28;20180;-59
2020/12/25 01:06:35;;;;;;;1.00;1.00;;;4.20;99.90;;;;;;5067950;28;20212;-59
2020/12/25 01:09:00;;;;;;;1.10;1.00;;;4.30;99.90;;;;;;5068066;28;20706;-60
2020/12/25 01:11:26;;;;;;;1.20;1.10;;;4.20;99.90;;;;;;5068000;28;20188;-59
2020/12/25 01:13:52;;;;;;;1.30;1.17;;;3.60;99.90;;;;;;5068397;28;20209;-60
2020/12/25 01:16:18;;;;;;;1.30;1.20;;;4.40;99.90;;;;;;5068141;28;20236;-57
2020/12/25 01:18:48;;;;;;;1.35;1.25;;;4.20;99.90;;;;;;5067709;28;20304;-59
2020/12/25 01:21:17;;;;;;;1.50;1.40;;;4.10;99.90;;;;;;5067876;28;20440;-59
2020/12/25 01:23:44;;;;;;;1.60;1.50;;;4.30;99.90;;;;;;5068351;28;20211;-59
2020/12/25 01:26:10;;;;;;;1.65;1.55;;;4.10;99.90;;;;;;5067586;28;20751;-59
2020/12/25 01:28:37;;;;;;;1.50;1.40;;;4.00;99.90;;;;;;5067479;28;20197;-59
2020/12/25 01:31:03;;;;;;;2.00;1.73;;;3.80;99.90;;;;;;5068382;28;20184;-59
2020/12/25 01:33:36;;;;;;;2.38;1.65;;;4.10;99.90;;;;;;5064406;28;20182;-60
2020/12/25 01:36:03;;;;;;;1.60;1.50;;;4.20;99.90;;;;;;5067166;28;20192;-58
2020/12/25 01:38:28;;;;;;;2.75;1.98;;;3.90;99.90;;;;;;5067658;28;20190;-59
2020/12/25 01:40:54;;;;;;;1.93;1.60;;;4.00;99.90;;;;;;5067900;28;20725;-59
2020/12/25 01:43:20;;;;;;;2.00;1.90;;;4.10;99.90;;;;;;5067945;28;20188;-59
2020/12/25 01:45:45;;;;;;;2.23;2.03;;;3.40;99.90;;;;;;5068992;28;20493;-59
2020/12/25 01:48:12;;;;;;;1.87;1.70;;;4.40;99.90;;;;;;5072022;28;20215;-59
2020/12/25 01:50:38;;;;;;;3.25;2.10;;;4.40;99.90;;;;;;5071735;28;20192;-59
2020/12/25 01:53:05;;;;;;;1.60;1.50;;;4.50;99.90;;;;;;5071465;28;20186;-59
2020/12/25 01:55:32;;;;;;;1.98;1.83;;;4.50;99.90;;;;;;5071194;28;20185;-59
2020/12/25 01:58:00;;;;;;;2.10;1.92;;;4.60;99.90;;;;;;5071144;28;20435;-59
2020/12/25 02:00:27;;;;;;;2.83;2.28;;;4.70;99.90;;;;;;5067709;28;20186;-59
2020/12/25 02:02:52;;;;;;;2.70;2.50;;;4.60;99.90;;;;;;5065957;28;20658;-57
2020/12/25 02:05:18;;;;;;;2.20;2.00;;;4.60;99.90;;;;;;5069091;28;20193;-57
2020/12/25 02:07:45;;;;;;;3.20;2.93;;;4.70;99.90;;;;;;5071163;28;20670;-59
2020/12/25 02:10:11;;;;;;;3.00;2.70;;;4.60;99.90;;;;;;5072526;28;20462;-59
2020/12/25 02:12:37;;;;;;;3.00;2.80;;;4.80;99.90;;;;;;5071256;28;20180;-59
2020/12/25 02:15:05;;;;;;;3.00;2.70;;;4.70;99.90;;;;;;5071595;28;20177;-59
2020/12/25 02:17:30;;;;;;;2.92;2.72;;;4.80;99.90;;;;;;5071204;28;20225;-59
2020/12/25 02:19:56;;;;;;;3.00;2.77;;;5.00;99.90;;;;;;5072739;28;20201;-59
2020/12/25 02:22:21;;;;;;;3.70;3.40;;;4.80;99.90;;;;;;5071206;28;20272;-59
2020/12/25 02:24:47;;;;;;;4.10;3.60;;;4.80;99.90;;;;;;5071260;28;20194;-58
2020/12/25 02:27:13;;;;;;;3.80;3.37;;;4.70;99.90;;;;;;5069304;28;20719;-59
2020/12/25 02:29:38;;;;;;;3.50;3.20;;;4.80;99.90;;;;;;5066924;28;20626;-57
2020/12/25 02:32:04;;;;;;;4.57;3.23;;;4.70;99.90;;;;;;5070688;28;20197;-60
2020/12/25 02:34:29;;;;;;;4.20;3.40;;;4.70;99.90;;;;;;5067908;28;20526;-57
2020/12/25 02:36:55;;;;;;;3.43;3.13;;;4.90;99.90;;;;;;5071703;28;20674;-57
2020/12/25 02:39:21;;;;;;;7.30;3.50;;;5.10;99.90;;;;;;5070440;28;20192;-58
2020/12/25 02:41:46;;;;;;;3.50;3.20;;;5.00;99.90;;;;;;5070753;28;20193;-58
2020/12/25 02:44:12;;;;;;;3.90;3.53;;;5.00;99.90;;;;;;5070301;28;20255;-58
2020/12/25 02:46:37;;;;;;;4.47;3.27;;;4.70;99.90;;;;;;5070318;28;20606;-59
2020/12/25 02:49:03;;;;;;;3.93;3.20;;;4.70;99.90;;;;;;5070070;28;20289;-58
2020/12/25 02:51:29;;;;;;;4.37;4.07;;;4.80;99.90;;;;;;5070585;28;20182;-58
2020/12/25 02:53:54;;;;;;;4.10;3.70;;;4.80;99.90;;;;;;5070507;28;20251;-58
2020/12/25 02:56:20;;;;;;;4.63;3.90;;;4.60;99.90;;;;;;5070328;28;20569;-59
2020/12/25 02:58:46;;;;;;;3.97;3.67;;;4.60;99.90;;;;;;5069320;28;20181;-58
2020/12/25 03:01:13;;;;;;;4.40;3.97;;;4.80;99.90;;;;;;5067142;28;20190;-58
2020/12/25 03:03:39;;;;;;;3.90;3.40;;;4.70;99.90;;;;;;5067996;28;20664;-58
2020/12/25 03:06:06;;;;;;;3.90;3.60;;;4.70;99.90;;;;;;5070203;28;20234;-59
2020/12/25 03:08:32;;;;;;;5.47;3.42;;;4.60;99.90;;;;;;5069972;28;20193;-58
2020/12/25 03:10:58;;;;;;;3.73;3.43;;;4.70;99.90;;;;;;5070292;28;20181;-58
2020/12/25 03:13:24;;;;;;;4.20;3.80;;;4.80;99.90;;;;;;5069951;28;20473;-59
2020/12/25 03:15:50;;;;;;;4.47;4.07;;;4.60;99.90;;;;;;5070335;28;20181;-58
2020/12/25 03:18:16;;;;;;;4.40;3.43;;;4.80;99.90;;;;;;5069708;28;20181;-59
2020/12/25 03:20:42;;;;;;;4.00;3.60;;;5.10;99.90;;;;;;5069969;28;20173;-58
2020/12/25 03:23:07;;;;;;;4.20;3.80;;;4.70;99.90;;;;;;5069808;28;20280;-59
2020/12/25 03:25:33;;;;;;;5.13;4.23;;;4.80;99.90;;;;;;5069942;28;20199;-59
2020/12/25 03:27:59;;;;;;;4.07;3.67;;;4.80;99.90;;;;;;5061578;28;20316;-59
2020/12/25 03:30:25;;;;;;;4.37;3.97;;;4.70;99.90;;;;;;5050061;28;20300;-58
2020/12/25 03:32:50;;;;;;;4.30;3.90;;;4.70;99.90;;;;;;5061547;28;20178;-59
2020/12/25 03:35:16;;;;;;;4.17;3.77;;;5.10;99.90;;;;;;5067678;28;20435;-59
2020/12/25 03:37:42;;;;;;;4.07;3.67;;;4.80;99.90;;;;;;5069104;28;20690;-58
2020/12/25 03:40:09;;;;;;;3.87;3.47;;;4.70;99.90;;;;;;5069289;28;20433;-58
2020/12/25 03:42:34;;;;;;;3.80;3.40;;;4.90;99.90;;;;;;5072886;28;20238;-58
2020/12/25 03:45:00;;;;;;;4.10;3.67;;;5.00;99.90;;;;;;5069441;28;20185;-58
2020/12/25 03:47:26;;;;;;;4.90;3.77;;;5.00;99.90;;;;;;5070119;28;20297;-58
2020/12/25 03:49:53;;;;;;;4.70;3.75;;;4.80;99.90;;;;;;5069247;28;20630;-58
2020/12/25 03:52:19;;;;;;;4.70;3.45;;;4.90;99.90;;;;;;5069382;28;20235;-58
2020/12/25 03:54:45;;;;;;;5.60;3.95;;;4.80;99.90;;;;;;5069069;28;20646;-58
2020/12/25 03:57:11;;;;;;;4.17;3.77;;;4.70;99.90;;;;;;5068863;28;20221;-59
2020/12/25 03:59:36;;;;;;;4.70;4.30;;;4.70;99.90;;;;;;5068779;28;20197;-58
2020/12/25 04:02:02;;;;;;;4.30;3.90;;;4.60;99.90;;;;;;5069183;28;20227;-59
2020/12/25 04:04:28;;;;;;;3.90;3.30;;;4.80;99.90;;;;;;5069501;28;20288;-59
2020/12/25 04:06:53;;;;;;;3.93;3.50;;;5.00;99.90;;;;;;5069186;28;20458;-58
2020/12/25 04:09:19;;;;;;;4.33;3.93;;;4.90;99.90;;;;;;5068699;28;20694;-59
2020/12/25 04:11:45;;;;;;;5.40;4.27;;;5.00;99.90;;;;;;5068744;28;20185;-58
2020/12/25 04:14:10;;;;;;;5.20;4.70;;;5.10;99.90;;;;;;5068787;28;20207;-59
2020/12/25 04:16:36;;;;;;;4.97;4.40;;;4.80;99.90;;;;;;5068890;28;20213;-59
2020/12/25 04:19:01;;;;;;;4.60;4.07;;;5.00;99.90;;;;;;5068490;28;20283;-59
2020/12/25 04:21:27;;;;;;;4.50;4.10;;;5.00;99.90;;;;;;5068490;28;20224;-58
2020/12/25 04:23:52;;;;;;;4.37;3.97;;;5.20;99.90;;;;;;5068877;28;20194;-59
2020/12/25 04:26:18;;;;;;;4.33;3.93;;;5.10;99.90;;;;;;5068382;28;20816;-59
2020/12/25 04:28:44;;;;;;;4.50;4.10;;;5.00;99.90;;;;;;5069402;28;20205;-59
2020/12/25 04:31:10;;;;;;;4.37;3.67;;;5.00;99.90;;;;;;5068340;28;20526;-59
2020/12/25 04:33:36;;;;;;;4.32;3.92;;;4.90;99.90;;;;;;5068626;28;20177;-59
2020/12/25 04:36:02;;;;;;;4.33;3.93;;;4.90;99.90;;;;;;5068312;28;20676;-59
2020/12/25 04:38:27;;;;;;;5.03;4.50;;;5.10;99.90;;;;;;5068357;28;20666;-59
2020/12/25 04:40:53;;;;;;;5.17;4.07;;;4.90;99.90;;;;;;5068171;28;20184;-59
2020/12/25 04:43:19;;;;;;;4.57;3.50;;;5.00;99.90;;;;;;5068347;28;20189;-58
2020/12/25 04:45:44;;;;;;;3.70;3.40;;;5.00;99.90;;;;;;5068051;28;20280;-58
2020/12/25 04:48:12;;;;;;;4.20;3.80;;;5.30;99.90;;;;;;5068062;28;20247;-59
2020/12/25 04:50:37;;;;;;;4.47;4.07;;;5.00;99.90;;;;;;5068059;28;20466;-59
2020/12/25 04:53:03;;;;;;;4.20;3.80;;;5.00;99.90;;;;;;5069442;28;20177;-58
2020/12/25 04:55:28;;;;;;;4.20;3.80;;;5.00;99.90;;;;;;5067900;28;20597;-59
2020/12/25 04:57:57;;;;;;;3.83;3.43;;;5.00;99.90;;;;;;5067960;28;20244;-58
2020/12/25 05:00:24;;;;;;;3.83;3.53;;;5.10;99.90;;;;;;5068261;28;20196;-59
2020/12/25 05:02:53;;;;;;;5.65;3.50;;;5.00;99.90;;;;;;5066331;28;20270;-58
2020/12/25 05:05:30;;;;;;;4.28;3.50;;;5.00;99.90;;;;;;5052041;28;20195;-58
2020/12/25 05:07:57;;;;;;;3.65;3.35;;;4.70;99.90;;;;;;5066777;28;20216;-58
2020/12/25 05:10:23;;;;;;;3.70;3.40;;;4.40;99.90;;;;;;5067893;28;20197;-58
2020/12/25 05:12:49;;;;;;;3.50;3.20;;;5.00;99.90;;;;;;5067948;28;20193;-59
2020/12/25 05:15:15;;;;;;;4.60;3.63;;;4.90;99.90;;;;;;5068005;28;20642;-58
2020/12/25 05:17:42;;;;;;;4.00;3.60;;;5.00;99.90;;;;;;5067713;28;20208;-58
2020/12/25 05:20:08;;;;;;;4.15;3.78;;;4.50;99.90;;;;;;5084041;28;20203;-58
2020/12/25 05:22:35;;;;;;;2.95;2.75;;;5.00;99.90;;;;;;5070530;28;20200;-58
2020/12/25 05:25:03;;;;;;;3.30;3.00;;;4.90;99.90;;;;;;5072103;28;20226;-58
2020/12/25 05:27:30;;;;;;;4.13;3.78;;;4.80;99.90;;;;;;5072094;28;20547;-58
2020/12/25 05:30:05;;;;;;;3.70;3.40;;;5.00;99.90;;;;;;5071691;28;20290;-58
2020/12/25 05:32:33;;;;;;;4.63;4.10;;;5.00;99.90;;;;;;5068579;28;20202;-59
2020/12/25 05:34:59;;;;;;;4.00;3.65;;;4.70;99.90;;;;;;5062553;28;20237;-59
2020/12/25 05:37:38;;;;;;;3.50;3.20;;;4.70;99.90;;;;;;5071725;28;20212;-58
2020/12/25 05:40:08;;;;;;;5.70;4.45;;;4.80;99.90;;;;;;5071738;28;20181;-58
2020/12/25 05:42:50;;;;;;;4.88;3.92;;;4.90;99.90;;;;;;5072046;28;20173;-58
2020/12/25 05:45:17;;;;;;;5.18;4.68;;;4.90;99.90;;;;;;5071782;28;20270;-59
2020/12/25 05:47:45;;;;;;;4.32;3.92;;;4.90;99.90;;;;;;5071694;28;20205;-58
2020/12/25 05:50:11;;;;;;;4.85;4.43;;;4.60;99.90;;;;;;5071822;28;20209;-58
2020/12/25 05:52:40;;;;;;;4.10;3.80;;;4.90;99.90;;;;;;5071820;28;20285;-59
2020/12/25 05:55:08;;;;;;;4.95;4.45;;;4.90;99.90;;;;;;5071530;28;20348;-58
2020/12/25 05:57:34;;;;;;;5.05;4.38;;;4.60;99.90;;;;;;5071568;28;20452;-58
2020/12/25 06:00:04;;;;;;;5.00;3.95;;;4.90;99.90;;;;;;5071084;28;20221;-58
2020/12/25 06:02:34;;;;;;;5.05;4.20;;;4.80;99.90;;;;;;5071366;28;20266;-58
2020/12/25 06:05:01;;;;;;;4.70;4.25;;;5.00;99.90;;;;;;5071567;28;20174;-59
2020/12/25 06:07:29;;;;;;;5.88;5.05;;;4.80;99.90;;;;;;5071579;28;20208;-57
2020/12/25 06:09:58;;;;;;;4.68;4.18;;;5.00;99.90;;;;;;5071150;28;20679;-59
2020/12/25 06:12:40;;;;;;;5.25;4.55;;;4.80;99.90;;;;;;5071468;28;20205;-58
2020/12/25 06:15:08;;;;;;;5.93;5.00;;;4.80;99.90;;;;;;5071159;28;20257;-58
2020/12/25 06:17:45;;;;;;;6.10;5.20;;;4.80;99.90;;;;;;5071225;28;20194;-58
2020/12/25 06:20:13;;;;;;;5.88;5.20;;;4.40;99.90;;;;;;5071041;28;20243;-58
2020/12/25 06:22:41;;;;;;;5.82;5.22;;;4.50;99.90;;;;;;5073071;28;20176;-58
2020/12/25 06:25:08;;;;;;;6.30;5.70;;;4.90;99.90;;;;;;5070999;28;20224;-58
2020/12/25 06:27:35;;;;;;;7.35;5.10;;;4.70;99.90;;;;;;5066596;28;20211;-58
2020/12/25 06:30:02;;;;;;;5.60;5.03;;;4.60;99.90;;;;;;5050714;28;20625;-58
2020/12/25 06:32:32;;;;;;;6.25;5.07;;;4.50;99.90;;;;;;5062327;28;20454;-58
2020/12/25 06:35:00;;;;;;;6.70;6.00;;;4.50;99.90;;;;;;5065952;28;20185;-57
2020/12/25 06:37:30;;;;;;;6.40;5.65;;;4.60;99.90;;;;;;5069845;28;20581;-57
2020/12/25 06:40:05;;;;;;;5.93;5.05;;;4.60;99.90;;;;;;5070194;28;20200;-57
2020/12/25 06:42:37;;;;;;;6.25;5.65;;;4.60;99.90;;;;;;5070599;28;20561;-57
2020/12/25 06:45:05;;;;;;;6.25;5.65;;;4.40;99.90;;;;;;5070385;28;20771;-57
2020/12/25 06:47:34;;;;;;;5.40;4.88;;;4.60;99.90;;;;;;5070424;28;20213;-57
2020/12/25 06:50:08;;;;;;;6.22;5.63;;;4.50;99.90;;;;;;5069916;28;20772;-58
2020/12/25 06:52:53;;;;;;;6.13;5.53;;;4.50;99.90;;;;;;5070674;28;20267;-58
2020/12/25 06:55:38;;;;;;;4.95;4.45;;;4.60;99.90;;;;;;5070472;28;20200;-58
2020/12/25 06:58:06;;;;;;;7.78;5.45;;;4.50;99.90;;;;;;5070618;28;20287;-58
2020/12/25 07:00:31;;;;;;;6.13;4.97;;;4.40;99.90;;;;;;5070403;28;20185;-59
2020/12/25 07:03:12;;;;;;;5.93;5.03;;;4.40;99.90;;;;;;5070608;28;20185;-57
2020/12/25 07:05:48;;;;;;;5.78;5.13;;;4.40;99.90;;;;;;5079574;28;20186;-58
2020/12/25 07:08:31;;;;;;;6.97;5.90;;;4.40;99.90;;;;;;5070147;28;20590;-58
2020/12/25 07:11:07;;;;;;;6.30;5.35;;;3.80;99.90;;;;;;5070034;28;20193;-58
2020/12/25 07:13:36;;;;;;;5.25;4.80;;;4.40;99.90;;;;;;5070275;28;20189;-58
2020/12/25 07:16:06;;;;;;;7.28;4.57;;;4.10;99.90;;;;;;5069933;28;20669;-59
2020/12/25 07:18:33;;;;;;;7.78;4.68;;;4.30;99.90;;;;;;5069807;28;20559;-60
2020/12/25 07:21:00;;;;;;;4.97;4.57;;;4.20;99.90;;;;;;5069829;28;20307;-59
2020/12/25 07:23:26;;;;;;;5.35;4.78;;;4.20;99.90;;;;;;5069804;28;20663;-58
2020/12/25 07:25:59;;;;;;;5.38;4.50;;;4.40;99.90;;;;;;5069403;28;20255;-59
2020/12/25 07:28:27;;;;;;;4.30;3.90;;;4.60;99.90;;;;;;5066455;28;20203;-59
2020/12/25 07:30:55;;;;;;;5.25;4.75;;;4.20;99.90;;;;;;5069515;28;20201;-59
2020/12/25 07:33:21;;;;;;;4.22;3.83;;;4.40;99.90;;;;;;5066938;28;20204;-58
2020/12/25 07:35:47;;;;;;;4.20;3.80;;;4.40;99.90;;;;;;5069040;28;20671;-58
2020/12/25 07:38:14;;;;;;;4.43;4.03;;;4.10;99.90;;;;;;5069159;28;20268;-59
2020/12/25 07:40:41;;;;;;;3.80;3.40;;;4.10;99.90;;;;;;5069142;28;20528;-58
2020/12/25 07:43:06;;;;;;;3.95;3.50;;;4.20;99.90;;;;;;5069696;28;20193;-58
2020/12/25 07:45:33;;;;;;;4.20;3.80;;;4.40;99.90;;;;;;5068695;28;20638;-59
2020/12/25 07:48:01;;;;;;;4.18;3.78;;;4.20;99.90;;;;;;5069452;28;20299;-58
2020/12/25 07:50:26;;;;;;;4.28;3.88;;;4.30;99.90;;;;;;5069176;28;20217;-58
2020/12/25 07:52:52;;;;;;;4.63;3.83;;;4.30;99.90;;;;;;5069227;28;20181;-59
2020/12/25 07:55:19;;;;;;;4.70;4.20;;;4.30;99.90;;;;;;5069094;28;20532;-58
2020/12/25 07:57:47;;;;;;;4.25;3.60;;;4.40;99.90;;;;;;5069003;28;20288;-59
2020/12/25 08:00:14;;;;;;;4.97;4.50;;;4.30;99.90;;;;;;5068787;28;20189;-58
2020/12/25 08:02:42;;;;;;;4.30;3.90;;;4.30;99.90;;;;;;5068888;28;20181;-59
2020/12/25 08:05:10;;;;;;;4.25;3.85;;;4.30;99.90;;;;;;5069954;28;20181;-59
2020/12/25 08:07:41;;;;;;;4.20;3.80;;;4.10;99.90;;;;;;5058935;28;20208;-58
2020/12/25 08:10:10;;;;;;;4.20;3.80;;;4.30;99.90;;;;;;5070632;28;20232;-59
2020/12/25 08:12:36;;;;;;;4.53;3.50;;;4.50;99.90;;;;;;5069050;28;20551;-59
2020/12/25 08:15:02;;;;;;;4.40;4.00;;;4.30;99.90;;;;;;5068926;28;20189;-58
2020/12/25 08:17:28;;;;;;;5.97;4.47;;;4.40;99.90;;;;;;5068584;28;20205;-58
2020/12/25 08:19:53;;;;;;;4.60;4.13;;;4.10;99.90;;;;;;5068605;28;20508;-59
2020/12/25 08:22:20;;;;;;;5.60;4.60;;;4.20;99.90;;;;;;5068786;28;20185;-60
2020/12/25 08:24:45;;;;;;;4.68;4.28;;;4.40;99.90;;;;;;5068804;28;20201;-59
2020/12/25 08:27:15;;;;;;;4.87;4.33;;;4.40;99.90;;;;;;5068551;28;20690;-58
2020/12/25 08:29:41;;;;;;;6.28;4.70;;;4.30;99.90;;;;;;5069105;28;20209;-58
2020/12/25 08:32:08;;;;;;;5.67;5.10;;;4.50;99.90;;;;;;5068190;28;20188;-58
2020/12/25 08:34:34;;;;;;;6.30;5.63;;;4.60;99.90;;;;;;5068699;28;20215;-58
2020/12/25 08:37:04;;;;;;;6.85;6.00;;;4.60;99.90;;;;;;5068172;28;20212;-59
2020/12/25 08:39:31;;;;;;;9.02;7.05;;;4.00;99.90;;;;;;5068226;28;20200;-58
2020/12/25 08:41:57;;;;;;;8.57;6.60;;;4.30;99.90;;;;;;5068205;28;20310;-59
2020/12/25 08:44:23;;;;;;;7.47;6.25;;;4.30;99.90;;;;;;5069802;28;20189;-59
2020/12/25 08:46:49;;;;;;;8.37;6.30;;;4.40;99.90;;;;;;5068553;28;20522;-59
2020/12/25 08:49:30;;;;;;;7.17;6.40;;;4.40;99.90;;;;;;5068148;28;20476;-58
2020/12/25 08:51:55;;;;;;;8.90;6.90;;;4.50;99.90;;;;;;5068163;28;20180;-58
2020/12/25 08:54:26;;;;;;;9.10;7.67;;;4.80;99.90;;;;;;5068318;28;20184;-59
2020/12/25 08:56:52;;;;;;;9.60;7.57;;;4.40;99.90;;;;;;5067210;28;20201;-58
2020/12/25 08:59:20;;;;;;;7.80;6.93;;;4.60;99.90;;;;;;5067780;28;20607;-58
2020/12/25 09:01:50;;;;;;;9.35;8.00;;;4.70;99.90;;;;;;5067917;28;20677;-59
2020/12/25 09:04:19;;;;;;;10.48;8.30;;;5.00;99.90;;;;;;5064808;28;20671;-59
2020/12/25 09:06:48;;;;;;;10.52;9.02;;;4.90;99.90;;;;;;5065802;28;20209;-59
2020/12/25 09:09:14;;;;;;;11.00;8.27;;;5.00;99.90;;;;;;5067743;28;20205;-58
2020/12/25 09:11:40;;;;;;;10.80;8.40;;;4.80;99.90;;;;;;5069025;28;20177;-58
2020/12/25 09:14:05;;;;;;;9.20;7.33;;;4.90;99.90;;;;;;5068092;28;20268;-58
2020/12/25 09:16:31;;;;;;;10.67;8.37;;;4.90;99.90;;;;;;5067775;28;20204;-58
2020/12/25 09:18:56;;;;;;;9.10;7.30;;;4.70;99.90;;;;;;5067791;28;20565;-59
2020/12/25 09:21:24;;;;;;;8.83;7.93;;;5.00;99.90;;;;;;5067768;28;20190;-58
2020/12/25 09:23:50;;;;;;;10.00;7.40;;;5.10;99.90;;;;;;5067970;28;20262;-59
2020/12/25 09:26:15;;;;;;;11.70;7.47;;;4.80;99.90;;;;;;5067770;28;20686;-58
2020/12/25 09:28:46;;;;;;;11.83;9.00;;;4.70;99.90;;;;;;5065129;28;20238;-59
2020/12/25 09:31:13;;;;;;;11.77;7.57;;;4.80;99.90;;;;;;5067839;28;20185;-58
2020/12/25 09:33:39;;;;;;;8.25;6.75;;;4.90;99.90;;;;;;5067562;28;20178;-58
2020/12/25 09:36:07;;;;;;;10.10;7.55;;;5.00;99.90;;;;;;5067781;28;20205;-58
2020/12/25 09:38:33;;;;;;;10.73;7.35;;;5.00;99.90;;;;;;5067604;28;20189;-58
2020/12/25 09:41:00;;;;;;;8.93;7.40;;;5.20;99.90;;;;;;5067868;28;20288;-58
2020/12/25 09:43:28;;;;;;;9.30;7.72;;;5.00;99.90;;;;;;5067757;28;20186;-58
2020/12/25 09:45:54;;;;;;;9.00;7.15;;;5.30;99.90;;;;;;5067911;28;20185;-59
2020/12/25 09:48:22;;;;;;;9.47;8.10;;;5.10;99.90;;;;;;5067598;28;20186;-59
2020/12/25 09:50:48;;;;;;;10.48;7.65;;;5.00;99.90;;;;;;5067746;28;20580;-59
2020/12/25 09:53:13;;;;;;;9.70;7.33;;;5.20;99.90;;;;;;5067533;28;20182;-58
2020/12/25 09:55:40;;;;;;;8.67;7.20;;;5.40;99.90;;;;;;5067532;28;20281;-58
2020/12/25 09:58:07;;;;;;;6.72;6.03;;;5.50;99.90;;;;;;5067466;28;20206;-58
2020/12/25 10:00:33;;;;;;;9.02;6.85;;;5.40;99.90;;;;;;5067701;28;20182;-59
2020/12/25 10:02:59;;;;;;;7.23;6.40;;;5.50;99.90;;;;;;5067339;28;20205;-59
2020/12/25 10:05:24;;;;;;;8.60;6.57;;;4.90;99.90;;;;;;5064867;28;20213;-58
2020/12/25 10:07:52;;;;;;;8.53;6.00;;;5.40;99.90;;;;;;5069962;28;20522;-59
2020/12/25 10:10:19;;;;;;;7.28;5.63;;;5.50;99.90;;;;;;5070945;28;20267;-58
2020/12/25 10:12:49;;;;;;;6.90;6.10;;;5.50;99.90;;;;;;5070998;28;20178;-59
2020/12/25 10:15:15;;;;;;;9.10;5.90;;;5.40;99.90;;;;;;5071242;28;20190;-58
2020/12/25 10:17:41;;;;;;;6.17;5.57;;;5.50;99.90;;;;;;5070612;28;20603;-58
2020/12/25 10:20:06;;;;;;;7.10;5.30;;;5.80;99.90;;;;;;5071101;28;20427;-58
2020/12/25 10:22:32;;;;;;;6.17;5.37;;;5.80;99.90;;;;;;5070294;28;20828;-59
2020/12/25 10:24:58;;;;;;;7.13;5.33;;;5.90;99.90;;;;;;5072107;28;20223;-59
2020/12/25 10:27:24;;;;;;;5.90;5.30;;;5.90;99.90;;;;;;5070280;28;20199;-58
2020/12/25 10:29:50;;;;;;;7.03;5.22;;;5.80;99.90;;;;;;5070512;28;20473;-58
2020/12/25 10:32:16;;;;;;;6.57;5.20;;;5.70;99.90;;;;;;5070989;28;20224;-58
2020/12/25 10:34:41;;;;;;;6.13;5.50;;;5.80;99.90;;;;;;5070725;28;20634;-58
2020/12/25 10:37:07;;;;;;;6.00;4.93;;;6.00;99.90;;;;;;5070322;28;20200;-59
2020/12/25 10:39:32;;;;;;;7.10;4.63;;;5.70;99.90;;;;;;5070320;28;20189;-58
2020/12/25 10:41:58;;;;;;;5.70;5.00;;;5.90;99.90;;;;;;5070635;28;20185;-59
2020/12/25 10:44:24;;;;;;;7.57;4.93;;;6.00;99.90;;;;;;5070464;28;20232;-58
2020/12/25 10:46:49;;;;;;;8.43;6.07;;;5.70;99.90;;;;;;5070862;28;20700;-58
2020/12/25 10:49:15;;;;;;;8.73;5.93;;;5.60;99.90;;;;;;5071003;28;20201;-58
2020/12/25 10:51:45;;;;;;;6.47;5.57;;;5.50;99.90;;;;;;5070321;28;20181;-59
2020/12/25 10:54:11;;;;;;;6.10;5.10;;;5.70;99.90;;;;;;5070206;28;20617;-58
2020/12/25 10:56:37;;;;;;;6.53;5.60;;;6.00;99.90;;;;;;5070669;28;20598;-58
2020/12/25 10:59:02;;;;;;;6.13;5.20;;;6.00;99.90;;;;;;5069753;28;20200;-58
2020/12/25 11:01:29;;;;;;;6.63;5.30;;;6.10;99.90;;;;;;5070183;28;20185;-59
2020/12/25 11:03:56;;;;;;;6.00;4.72;;;6.10;99.90;;;;;;5071462;28;20605;-59
2020/12/25 11:06:35;;;;;;;5.57;4.95;;;5.90;99.90;;;;;;5070393;28;20282;-59
2020/12/25 11:09:03;;;;;;;6.15;5.30;;;6.10;99.90;;;;;;5062152;28;20561;-58
2020/12/25 11:11:30;;;;;;;6.78;5.05;;;5.80;99.90;;;;;;5051753;28;20809;-58
2020/12/25 11:13:57;;;;;;;6.40;5.32;;;5.40;99.90;;;;;;5049844;28;20194;-59
2020/12/25 11:16:23;;;;;;;5.57;4.97;;;5.50;99.90;;;;;;5064321;28;20233;-58
2020/12/25 11:18:49;;;;;;;6.10;5.35;;;5.40;99.90;;;;;;5068771;28;20185;-59
2020/12/25 11:21:20;;;;;;;6.20;5.13;;;5.70;99.90;;;;;;5070140;28;20646;-59
2020/12/25 11:23:46;;;;;;;5.13;4.63;;;5.80;99.90;;;;;;5069897;28;20173;-58
2020/12/25 11:26:22;;;;;;;5.60;4.70;;;5.70;99.90;;;;;;5069900;28;20314;-59
2020/12/25 11:28:48;;;;;;;5.80;5.10;;;5.70;99.90;;;;;;5055089;28;20229;-58
2020/12/25 11:31:14;;;;;;;5.68;4.80;;;5.50;99.90;;;;;;5051177;28;20681;-59
2020/12/25 11:33:41;;;;;;;6.10;5.25;;;5.50;99.90;;;;;;5066283;28;20222;-59
2020/12/25 11:36:10;;;;;;;6.00;5.30;;;5.70;99.90;;;;;;5069727;28;20192;-59
2020/12/25 11:38:36;;;;;;;5.07;4.43;;;5.70;99.90;;;;;;5062536;28;20226;-59
2020/12/25 11:41:01;;;;;;;5.67;4.47;;;5.70;99.90;;;;;;5060122;28;20186;-58
2020/12/25 11:43:27;;;;;;;5.43;4.90;;;5.80;99.90;;;;;;5070971;28;20261;-59
2020/12/25 11:45:52;;;;;;;4.60;4.20;;;5.50;99.90;;;;;;5069300;28;20182;-58
2020/12/25 11:48:18;;;;;;;4.87;4.23;;;5.80;99.90;;;;;;5068903;28;20239;-59
2020/12/25 11:50:44;;;;;;;4.27;3.80;;;5.30;99.90;;;;;;5069181;28;20659;-58
2020/12/25 11:53:09;;;;;;;4.20;3.80;;;5.60;99.90;;;;;;5069432;28;20214;-58
2020/12/25 11:55:35;;;;;;;6.10;4.87;;;5.40;99.90;;;;;;5069042;28;20183;-58
2020/12/25 11:58:01;;;;;;;5.50;4.33;;;5.30;99.90;;;;;;5068822;28;20201;-58
2020/12/25 12:00:27;;;;;;;9.05;5.32;;;4.80;99.90;;;;;;5068818;28;20276;-59
2020/12/25 12:02:52;;;;;;;5.20;3.97;;;5.50;99.90;;;;;;5069019;28;20733;-59
2020/12/25 12:05:18;;;;;;;4.60;4.20;;;5.50;99.90;;;;;;5068696;28;20181;-58
2020/12/25 12:07:44;;;;;;;6.27;4.30;;;5.50;99.90;;;;;;5062660;28;20206;-58
2020/12/25 12:10:09;;;;;;;4.60;4.20;;;5.60;99.90;;;;;;5064913;28;20199;-58
2020/12/25 12:12:35;;;;;;;5.20;4.30;;;5.80;99.90;;;;;;5068950;28;20564;-58
2020/12/25 12:15:00;;;;;;;5.17;4.30;;;5.50;99.90;;;;;;5069600;28;20192;-58
2020/12/25 12:17:26;;;;;;;5.33;4.20;;;5.30;99.90;;;;;;5068483;28;20674;-59
2020/12/25 12:19:51;;;;;;;4.10;3.70;;;5.30;99.90;;;;;;5068453;28;20182;-60
2020/12/25 12:22:17;;;;;;;4.43;3.30;;;5.30;99.90;;;;;;5068580;28;20192;-60
2020/12/25 12:24:42;;;;;;;5.17;4.73;;;5.30;99.90;;;;;;5068017;28;20570;-59
2020/12/25 12:27:08;;;;;;;5.03;3.50;;;5.40;99.90;;;;;;5068351;28;20253;-59
2020/12/25 12:29:35;;;;;;;4.77;4.30;;;5.40;99.90;;;;;;5067836;28;20220;-59
2020/12/25 12:32:00;;;;;;;5.20;4.38;;;5.30;99.90;;;;;;5069708;28;20188;-58
2020/12/25 12:34:26;;;;;;;4.07;3.67;;;5.40;99.90;;;;;;5068345;28;20212;-59
2020/12/25 12:36:51;;;;;;;4.70;4.00;;;5.30;99.90;;;;;;5064721;28;20220;-59
2020/12/25 12:39:18;;;;;;;4.07;3.67;;;5.30;99.90;;;;;;5058203;28;20193;-59
2020/12/25 12:41:44;;;;;;;6.53;4.32;;;5.50;99.90;;;;;;5068179;28;20188;-59
2020/12/25 12:44:10;;;;;;;5.37;4.20;;;5.50;99.90;;;;;;5068252;28;20190;-58
2020/12/25 12:46:35;;;;;;;4.83;4.27;;;5.40;99.90;;;;;;5068316;28;20249;-59
2020/12/25 12:49:01;;;;;;;5.97;4.13;;;5.30;99.90;;;;;;5068057;28;20232;-59
2020/12/25 12:51:26;;;;;;;5.17;3.87;;;5.10;99.90;;;;;;5068191;28;20197;-58
2020/12/25 12:53:52;;;;;;;4.50;3.83;;;5.50;99.90;;;;;;5068116;28;20193;-57
2020/12/25 12:56:17;;;;;;;6.53;3.80;;;5.30;99.90;;;;;;5067741;28;20275;-58